Time;durP1;ratioP1;P1;durP2;ratioP2;P2;SDS_P1;SDS_P2;PMS_P1;PMS_P2;Temp;Humidity;BMP_temperature;BMP_pressure;BME280_temperature;BME280_humidity;BME280_pressure;Samples;Min_cycle;Max_cycle;Signal;HPM_P1;HPM_P2
2021/04/03 00:03:10;;;;;;;16.20;7.33;;;;;5.50;102221.00;;;;9669322;30;20295;-78
2021/04/03 00:08:12;;;;;;;20.17;7.40;;;;;5.40;102226.00;;;;9679460;30;20224;-79
2021/04/03 00:13:16;;;;;;;17.33;7.47;;;;;5.30;102222.00;;;;9648629;30;20219;-78
2021/04/03 00:18:17;;;;;;;18.20;7.07;;;;;5.30;102225.00;;;;9665915;30;20990;-79
2021/04/03 00:23:20;;;;;;;19.07;6.90;;;;;5.20;102214.00;;;;9676231;30;20204;-79
2021/04/03 00:28:22;;;;;;;18.87;6.63;;;;;5.20;102217.00;;;;9681323;30;20717;-78
2021/04/03 00:33:23;;;;;;;21.60;7.67;;;;;5.10;102211.00;;;;9680381;30;20227;-79
2021/04/03 00:38:36;;;;;;;18.00;5.97;;;;;5.00;102208.00;;;;9677398;30;20215;-79
2021/04/03 00:43:37;;;;;;;16.93;6.00;;;;;5.00;102199.00;;;;9677054;30;20577;-79
2021/04/03 00:48:39;;;;;;;14.37;5.40;;;;;5.00;102188.00;;;;9686351;30;20282;-79
2021/04/03 00:53:41;;;;;;;20.37;7.63;;;;;5.00;102189.00;;;;9703863;30;20932;-78
2021/04/03 00:58:44;;;;;;;16.93;5.23;;;;;5.00;102193.00;;;;9701323;30;20757;-78
2021/04/03 01:03:49;;;;;;;20.20;6.80;;;;;5.10;102189.00;;;;9693526;30;20227;-79
2021/04/03 01:08:51;;;;;;;19.90;6.07;;;;;5.30;102191.00;;;;9647451;30;20211;-79
2021/04/03 01:14:08;;;;;;;19.33;5.00;;;;;5.40;102192.00;;;;9697739;30;20454;-79
2021/04/03 01:19:45;;;;;;;14.47;4.97;;;;;5.60;102178.00;;;;9660018;30;20220;-79
2021/04/03 01:25:27;;;;;;;17.50;5.43;;;;;5.70;102183.00;;;;9693437;30;20248;-79
2021/04/03 01:30:30;;;;;;;17.57;4.57;;;;;5.80;102179.00;;;;9679366;30;20220;-78
2021/04/03 01:35:40;;;;;;;19.63;4.73;;;;;5.90;102187.00;;;;9690835;30;20239;-79
2021/04/03 01:40:52;;;;;;;20.87;4.30;;;;;6.00;102183.00;;;;9719956;30;20204;-78
2021/04/03 01:45:55;;;;;;;13.23;3.60;;;;;6.10;102180.00;;;;9680799;30;20258;-79
2021/04/03 01:50:58;;;;;;;5.13;2.40;;;;;6.10;102172.00;;;;9706091;30;20231;-78
2021/04/03 01:56:01;;;;;;;9.23;2.50;;;;;6.10;102170.00;;;;9709633;30;20212;-78
2021/04/03 02:01:15;;;;;;;13.67;2.73;;;;;6.10;102162.00;;;;9710103;30;20267;-79
2021/04/03 02:06:19;;;;;;;16.60;3.03;;;;;6.10;102177.00;;;;9667581;30;20803;-79
2021/04/03 02:11:47;;;;;;;7.27;2.30;;;;;6.10;102195.00;;;;9675902;30;20230;-79
2021/04/03 02:17:19;;;;;;;13.73;2.80;;;;;6.10;102194.00;;;;9698569;30;20215;-79
2021/04/03 02:22:23;;;;;;;10.67;2.60;;;;;6.10;102192.00;;;;9668806;30;20286;-78
2021/04/03 02:27:32;;;;;;;12.80;2.97;;;;;6.10;102186.00;;;;9673126;30;20255;-79
2021/04/03 02:32:35;;;;;;;9.93;2.43;;;;;6.10;102181.00;;;;9683494;30;20250;-79
2021/04/03 02:37:37;;;;;;;8.07;2.33;;;;;6.20;102179.00;;;;9697206;30;20210;-78
2021/04/03 02:42:54;;;;;;;7.53;2.07;;;;;6.20;102192.00;;;;9675528;30;20207;-79
2021/04/03 02:48:09;;;;;;;11.23;3.00;;;;;6.20;102183.00;;;;9687263;30;20308;-79
2021/04/03 02:53:15;;;;;;;18.47;2.70;;;;;6.10;102189.00;;;;9689652;30;20550;-79
2021/04/03 02:58:22;;;;;;;9.27;2.93;;;;;6.10;102185.00;;;;9688117;30;20211;-79
2021/04/03 03:03:25;;;;;;;17.83;2.83;;;;;6.10;102195.00;;;;9654921;30;20268;-79
2021/04/03 03:08:29;;;;;;;16.27;2.77;;;;;6.10;102193.00;;;;9672948;30;20212;-79
2021/04/03 03:13:34;;;;;;;14.30;3.60;;;;;6.10;102205.00;;;;9666068;30;20271;-79
2021/04/03 03:18:39;;;;;;;10.07;2.80;;;;;6.10;102204.00;;;;9694828;30;20204;-79
2021/04/03 03:23:41;;;;;;;11.40;3.33;;;;;6.10;102209.00;;;;9701946;30;20214;-79
2021/04/03 03:28:48;;;;;;;14.63;3.43;;;;;6.10;102203.00;;;;9692338;30;20637;-79
2021/04/03 03:33:49;;;;;;;14.67;3.20;;;;;6.10;102209.00;;;;9674759;30;20263;-79
2021/04/03 03:38:52;;;;;;;16.63;2.80;;;;;6.10;102203.00;;;;9661407;30;20257;-79
2021/04/03 03:43:56;;;;;;;10.47;2.60;;;;;6.10;102198.00;;;;9677065;30;20617;-79
2021/04/03 03:48:58;;;;;;;9.77;2.73;;;;;6.10;102200.00;;;;9690920;30;20237;-79
2021/04/03 03:54:01;;;;;;;8.37;2.47;;;;;6.10;102199.00;;;;9672910;30;20235;-78
2021/04/03 03:59:03;;;;;;;15.60;2.70;;;;;6.10;102189.00;;;;9694829;30;20207;-79
2021/04/03 04:04:07;;;;;;;14.00;3.20;;;;;6.10;102194.00;;;;9679045;30;20653;-79
2021/04/03 04:09:09;;;;;;;16.27;2.80;;;;;6.10;102201.00;;;;9685114;30;20200;-79
2021/04/03 04:14:16;;;;;;;13.00;2.90;;;;;6.10;102193.00;;;;9707768;30;20221;-79
2021/04/03 04:19:24;;;;;;;9.57;2.97;;;;;6.10;102198.00;;;;9688934;30;20219;-78
2021/04/03 04:24:29;;;;;;;21.70;6.13;;;;;6.10;102192.00;;;;9664830;30;20228;-79
2021/04/03 04:29:31;;;;;;;13.80;4.00;;;;;6.10;102199.00;;;;9682374;30;20677;-78
2021/04/03 04:34:36;;;;;;;21.87;3.70;;;;;6.10;102204.00;;;;9700760;30;20269;-79
2021/04/03 04:39:40;;;;;;;16.47;4.07;;;;;6.20;102210.00;;;;9678165;30;20304;-79
2021/04/03 04:44:48;;;;;;;16.33;3.67;;;;;6.20;102213.00;;;;9701553;30;20286;-79
2021/04/03 04:49:51;;;;;;;14.93;2.80;;;;;6.20;102227.00;;;;9661236;30;20302;-79
2021/04/03 04:54:55;;;;;;;12.90;3.47;;;;;6.20;102215.00;;;;9683489;30;20291;-79
2021/04/03 04:59:56;;;;;;;20.10;3.70;;;;;6.20;102215.00;;;;9665986;30;20212;-79
2021/04/03 05:05:06;;;;;;;18.23;3.53;;;;;6.20;102236.00;;;;9678042;30;20329;-79
2021/04/03 05:10:08;;;;;;;14.80;2.93;;;;;6.20;102230.00;;;;9704441;30;20226;-79
2021/04/03 05:15:10;;;;;;;11.17;3.07;;;;;6.20;102235.00;;;;9707164;30;20204;-79
2021/04/03 05:20:12;;;;;;;17.70;3.47;;;;;6.20;102248.00;;;;9717792;30;20241;-79
2021/04/03 05:25:14;;;;;;;9.83;3.00;;;;;6.30;102245.00;;;;9688641;30;20234;-78
2021/04/03 05:30:16;;;;;;;21.03;5.27;;;;;6.30;102242.00;;;;9719111;30;20218;-78
2021/04/03 05:35:17;;;;;;;12.97;2.90;;;;;6.30;102236.00;;;;9700295;30;20322;-79
2021/04/03 05:40:18;;;;;;;17.40;3.70;;;;;6.40;102251.00;;;;9678440;30;20207;-79
2021/04/03 05:45:23;;;;;;;17.33;3.67;;;;;6.40;102258.00;;;;9675768;30;20656;-79
2021/04/03 05:50:25;;;;;;;17.57;3.77;;;;;6.50;102264.00;;;;9677271;30;20230;-78
2021/04/03 05:55:27;;;;;;;15.27;4.10;;;;;6.60;102266.00;;;;9688503;30;20577;-77
2021/04/03 06:00:28;;;;;;;12.90;3.47;;;;;6.80;102265.00;;;;9710524;30;20780;-78
2021/04/03 06:05:31;;;;;;;7.90;2.87;;;;;6.80;102280.00;;;;9674882;30;20293;-78
2021/04/03 06:10:32;;;;;;;18.17;3.80;;;;;6.90;102262.00;;;;9683860;30;20223;-78
2021/04/03 06:15:35;;;;;;;11.70;2.70;;;;;7.00;102273.00;;;;9694193;30;20216;-78
2021/04/03 06:20:42;;;;;;;11.63;2.67;;;;;7.10;102284.00;;;;9674825;30;20199;-79
2021/04/03 06:25:57;;;;;;;16.67;3.80;;;;;7.20;102293.00;;;;9697133;30;20746;-78
2021/04/03 06:31:13;;;;;;;13.53;3.13;;;;;7.40;102289.00;;;;9663933;30;20233;-78
2021/04/03 06:36:16;;;;;;;16.17;3.17;;;;;7.50;102298.00;;;;9704247;30;20218;-78
2021/04/03 06:41:25;;;;;;;18.30;3.57;;;;;7.60;102303.00;;;;9679521;30;20247;-78
2021/04/03 06:46:27;;;;;;;14.57;3.13;;;;;7.70;102301.00;;;;9685451;30;20261;-79
2021/04/03 06:51:30;;;;;;;18.20;3.10;;;;;7.80;102311.00;;;;9670884;30;20216;-79
2021/04/03 06:56:36;;;;;;;20.60;3.27;;;;;7.80;102325.00;;;;9695138;30;20221;-78
2021/04/03 07:01:58;;;;;;;20.23;3.20;;;;;7.80;102315.00;;;;9673508;30;20211;-78
2021/04/03 07:06:59;;;;;;;15.80;3.77;;;;;8.00;102318.00;;;;9694544;30;20215;-79
2021/04/03 07:12:03;;;;;;;16.73;3.63;;;;;8.10;102328.00;;;;9676681;30;20228;-79
2021/04/03 07:17:05;;;;;;;17.43;3.23;;;;;8.30;102318.00;;;;9699826;30;20219;-78
2021/04/03 07:22:07;;;;;;;13.23;3.23;;;;;8.20;102332.00;;;;9671839;30;20204;-79
2021/04/03 07:27:09;;;;;;;21.87;4.23;;;;;8.40;102335.00;;;;9661193;30;20285;-78
2021/04/03 07:32:32;;;;;;;14.10;3.37;;;;;8.80;102341.00;;;;9684291;30;20241;-78
2021/04/03 07:37:35;;;;;;;17.23;3.00;;;;;8.90;102337.00;;;;9679817;30;20568;-78
2021/04/03 07:42:38;;;;;;;14.47;4.10;;;;;8.80;102334.00;;;;9682406;30;20263;-78
2021/04/03 07:47:47;;;;;;;18.20;3.80;;;;;9.10;102336.00;;;;9675563;30;20211;-77
2021/04/03 07:52:55;;;;;;;19.37;3.60;;;;;9.30;102340.00;;;;9697018;30;20576;-77
2021/04/03 07:58:21;;;;;;;16.23;4.03;;;;;9.40;102345.00;;;;9700102;30;20222;-78
2021/04/03 08:03:24;;;;;;;20.23;4.00;;;;;9.50;102353.00;;;;9676206;30;20206;-77
2021/04/03 08:08:31;;;;;;;13.37;3.80;;;;;9.70;102360.00;;;;9686247;30;20238;-77
2021/04/03 08:13:36;;;;;;;13.53;3.50;;;;;10.10;102350.00;;;;9684688;30;20216;-79
2021/04/03 08:18:40;;;;;;;16.80;4.50;;;;;10.20;102364.00;;;;9649176;30;20272;-80
2021/04/03 08:23:46;;;;;;;15.63;3.70;;;;;10.30;102362.00;;;;9665277;30;20216;-77
2021/04/03 08:28:48;;;;;;;22.53;4.63;;;;;10.50;102373.00;;;;9688616;30;20701;-77
2021/04/03 08:33:51;;;;;;;24.73;4.40;;;;;10.30;102367.00;;;;9645648;30;20231;-77
2021/04/03 08:38:56;;;;;;;15.80;4.20;;;;;10.20;102377.00;;;;9689364;30;20204;-78
2021/04/03 08:43:57;;;;;;;17.43;4.80;;;;;10.70;102386.00;;;;9690956;30;20287;-78
2021/04/03 08:48:59;;;;;;;23.57;4.57;;;;;10.90;102377.00;;;;9687275;30;20307;-77
2021/04/03 08:54:03;;;;;;;29.63;5.93;;;;;10.90;102381.00;;;;9671257;30;20208;-78
2021/04/03 08:59:12;;;;;;;16.90;4.30;;;;;10.40;102393.00;;;;9683796;30;20216;-78
2021/04/03 09:04:14;;;;;;;23.33;4.70;;;;;10.90;102397.00;;;;9686127;30;20219;-78
2021/04/03 09:09:15;;;;;;;20.47;4.40;;;;;11.30;102404.00;;;;9662545;30;20227;-77
2021/04/03 09:14:41;;;;;;;20.67;4.33;;;;;10.80;102405.00;;;;9691995;30;20752;-78
2021/04/03 09:19:42;;;;;;;14.83;4.77;;;;;10.60;102413.00;;;;9678938;30;20226;-78
2021/04/03 09:24:47;;;;;;;21.07;4.70;;;;;10.60;102398.00;;;;9660746;30;20752;-79
2021/04/03 09:29:53;;;;;;;18.37;4.67;;;;;11.30;102391.00;;;;9679963;30;20208;-78
2021/04/03 09:35:03;;;;;;;23.40;5.17;;;;;12.10;102395.00;;;;9689672;30;20236;-79
2021/04/03 09:40:07;;;;;;;23.17;4.67;;;;;12.40;102396.00;;;;9680710;30;20215;-79
2021/04/03 09:45:09;;;;;;;24.73;5.60;;;;;12.00;102386.00;;;;9689187;30;20208;-78
2021/04/03 09:50:11;;;;;;;18.33;4.57;;;;;12.00;102391.00;;;;9641021;30;20204;-77
2021/04/03 09:55:13;;;;;;;22.97;4.37;;;;;12.30;102401.00;;;;9692162;30;20226;-79
2021/04/03 10:00:15;;;;;;;22.50;4.17;;;;;12.30;102394.00;;;;9697771;30;20207;-78
2021/04/03 10:05:16;;;;;;;21.40;4.60;;;;;13.70;102386.00;;;;9659066;30;20621;-79
2021/04/03 10:10:17;;;;;;;13.87;3.93;;;;;13.60;102390.00;;;;9689583;30;20202;-78
2021/04/03 10:15:21;;;;;;;16.40;4.20;;;;;13.20;102402.00;;;;9705232;30;20311;-78
2021/04/03 10:20:22;;;;;;;12.80;4.00;;;;;13.00;102397.00;;;;9689304;30;20262;-78
2021/04/03 10:25:23;;;;;;;19.53;4.00;;;;;13.20;102392.00;;;;9682806;30;20784;-78
2021/04/03 10:30:25;;;;;;;17.63;4.87;;;;;14.90;102397.00;;;;9689840;30;20236;-78
2021/04/03 10:35:26;;;;;;;15.13;4.77;;;;;16.60;102368.00;;;;9692564;30;20215;-78
2021/04/03 10:40:28;;;;;;;16.70;4.50;;;;;18.30;102367.00;;;;9682744;30;20200;-78
2021/04/03 10:45:30;;;;;;;14.40;4.27;;;;;17.10;102384.00;;;;9691354;30;20262;-78
2021/04/03 10:50:31;;;;;;;15.17;4.70;;;;;16.10;102383.00;;;;9656560;30;20227;-77
2021/04/03 10:55:33;;;;;;;14.40;3.60;;;;;16.00;102372.00;;;;9689248;30;20200;-78
2021/04/03 11:00:35;;;;;;;13.00;3.80;;;;;15.40;102388.00;;;;9689373;30;20207;-78
2021/04/03 11:05:36;;;;;;;12.33;4.13;;;;;14.60;102387.00;;;;9679228;30;20211;-79
2021/04/03 11:10:38;;;;;;;14.47;4.53;;;;;14.30;102393.00;;;;9676209;30;20220;-77
2021/04/03 11:15:39;;;;;;;17.77;4.60;;;;;13.90;102393.00;;;;9684727;30;20216;-79
2021/04/03 11:20:41;;;;;;;15.17;4.43;;;;;14.20;102396.00;;;;9705263;30;20200;-78
2021/04/03 11:25:44;;;;;;;15.13;4.93;;;;;15.40;102375.00;;;;9688171;30;20220;-78
2021/04/03 11:30:46;;;;;;;13.07;3.90;;;;;17.10;102384.00;;;;9695434;30;20219;-79
2021/04/03 11:35:48;;;;;;;12.10;4.33;;;;;16.40;102367.00;;;;9709765;30;20257;-79
2021/04/03 11:40:50;;;;;;;11.80;3.70;;;;;16.30;102377.00;;;;9702921;30;20208;-79
2021/04/03 11:45:52;;;;;;;12.50;3.73;;;;;17.00;102374.00;;;;9648187;30;20577;-78
2021/04/03 11:50:54;;;;;;;14.33;3.83;;;;;16.70;102368.00;;;;9678196;30;20227;-78
2021/04/03 11:55:56;;;;;;;12.70;4.33;;;;;15.90;102378.00;;;;9662311;30;20204;-79
2021/04/03 12:00:58;;;;;;;14.50;4.67;;;;;15.60;102378.00;;;;9694709;30;20204;-79
2021/04/03 12:06:01;;;;;;;17.13;4.50;;;;;15.40;102381.00;;;;9690737;30;20212;-79
2021/04/03 12:11:03;;;;;;;15.90;4.20;;;;;16.30;102363.00;;;;9663385;30;20227;-78
2021/04/03 12:16:04;;;;;;;14.20;3.90;;;;;18.30;102373.00;;;;9669853;30;20215;-79
2021/04/03 12:21:06;;;;;;;13.27;4.23;;;;;16.70;102370.00;;;;9684320;30;21246;-79
2021/04/03 12:26:07;;;;;;;12.23;4.07;;;;;15.70;102363.00;;;;9666208;30;20231;-78
2021/04/03 12:31:08;;;;;;;15.60;4.63;;;;;17.30;102345.00;;;;9688061;30;20731;-78
2021/04/03 12:36:10;;;;;;;15.27;4.77;;;;;18.40;102350.00;;;;9685291;30;20287;-79
2021/04/03 12:41:12;;;;;;;15.77;4.30;;;;;17.10;102336.00;;;;9692238;30;20291;-79
2021/04/03 12:46:14;;;;;;;12.93;4.00;;;;;18.20;102333.00;;;;9685586;30;20337;-79
2021/04/03 12:51:15;;;;;;;11.17;4.33;;;;;19.60;102324.00;;;;9671196;30;20231;-79
2021/04/03 12:56:17;;;;;;;15.83;4.70;;;;;18.90;102332.00;;;;9673945;30;20203;-77
2021/04/03 13:01:18;;;;;;;15.30;4.00;;;;;17.00;102332.00;;;;9714438;30;20208;-79
2021/04/03 13:06:20;;;;;;;12.93;4.60;;;;;16.10;102330.00;;;;9680326;30;20223;-79
2021/04/03 13:11:22;;;;;;;12.47;4.27;;;;;15.70;102321.00;;;;9679707;30;20216;-78
2021/04/03 13:16:24;;;;;;;11.70;4.23;;;;;16.50;102307.00;;;;9679428;30;20294;-79
2021/04/03 13:21:26;;;;;;;13.53;4.47;;;;;19.10;102306.00;;;;9666801;30;20208;-79
2021/04/03 13:26:27;;;;;;;11.00;3.83;;;;;18.20;102304.00;;;;9672638;30;20236;-77
2021/04/03 13:31:28;;;;;;;12.43;4.03;;;;;17.60;102304.00;;;;9686872;30;20216;-78
2021/04/03 13:36:30;;;;;;;10.00;3.30;;;;;17.10;102297.00;;;;9673078;30;20232;-77
2021/04/03 13:41:32;;;;;;;13.93;3.87;;;;;17.00;102297.00;;;;9672321;30;20277;-77
2021/04/03 13:46:35;;;;;;;11.73;4.07;;;;;19.10;102280.00;;;;9669713;30;20311;-77
2021/04/03 13:51:37;;;;;;;14.37;4.17;;;;;17.70;102286.00;;;;9699038;30;20213;-77
2021/04/03 13:56:38;;;;;;;10.90;3.97;;;;;17.10;102292.00;;;;9663989;30;20679;-78
2021/04/03 14:01:40;;;;;;;9.27;3.83;;;;;20.00;102292.00;;;;9731214;30;20589;-77
2021/04/03 14:06:41;;;;;;;11.23;3.97;;;;;18.40;102285.00;;;;9668831;30;20695;-77
2021/04/03 14:11:43;;;;;;;17.63;4.30;;;;;21.90;102264.00;;;;9701059;30;20219;-77
2021/04/03 14:16:45;;;;;;;7.37;3.10;;;;;19.60;102282.00;;;;9691419;30;20210;-77
2021/04/03 14:22:00;;;;;;;11.00;3.37;;;;;17.00;102277.00;;;;9680015;30;20685;-77
2021/04/03 14:27:04;;;;;;;13.87;3.93;;;;;16.60;102280.00;;;;9693898;30;20231;-77
2021/04/03 14:32:06;;;;;;;12.83;4.47;;;;;20.80;102246.00;;;;9704285;30;20606;-77
2021/04/03 14:37:08;;;;;;;11.83;4.07;;;;;24.80;102242.00;;;;9695617;30;20705;-78
2021/04/03 14:42:09;;;;;;;10.97;3.77;;;;;21.50;102265.00;;;;9675006;30;20200;-78
2021/04/03 14:47:11;;;;;;;12.27;4.30;;;;;20.90;102260.00;;;;9707548;30;20862;-77
2021/04/03 14:52:12;;;;;;;13.60;3.70;;;;;22.30;102255.00;;;;9680996;30;20224;-78
2021/04/03 14:57:13;;;;;;;13.23;3.58;;;;;21.70;102246.00;;;;9676547;30;20252;-78
2021/04/03 15:02:15;;;;;;;12.27;4.32;;;;;19.40;102252.00;;;;9702181;30;20226;-77
2021/04/03 15:07:16;;;;;;;9.30;3.30;;;;;17.60;102235.00;;;;9718026;30;20188;-77
2021/04/03 15:12:17;;;;;;;10.60;3.50;;;;;16.80;102242.00;;;;9689939;30;20218;-77
2021/04/03 15:17:19;;;;;;;13.20;4.23;;;;;15.80;102233.00;;;;9691469;30;20212;-76
2021/04/03 15:22:20;;;;;;;12.23;3.93;;;;;15.60;102232.00;;;;9674264;30;20203;-77
2021/04/03 15:27:21;;;;;;;14.07;3.93;;;;;15.50;102246.00;;;;9685644;30;20235;-77
2021/04/03 15:32:24;;;;;;;11.37;3.60;;;;;15.20;102236.00;;;;9698039;30;20231;-77
2021/04/03 15:37:26;;;;;;;14.07;3.70;;;;;14.80;102233.00;;;;9686634;30;20207;-77
2021/04/03 15:42:27;;;;;;;13.93;3.63;;;;;14.60;102237.00;;;;9692466;30;20203;-77
2021/04/03 15:47:28;;;;;;;16.57;4.13;;;;;14.90;102226.00;;;;9659677;30;20204;-78
2021/04/03 15:52:29;;;;;;;13.07;3.60;;;;;14.80;102223.00;;;;9674066;30;20224;-78
2021/04/03 15:57:36;;;;;;;13.83;3.80;;;;;14.70;102217.00;;;;9690678;30;20286;-77
2021/04/03 16:02:37;;;;;;;13.60;3.67;;;;;15.00;102223.00;;;;9685068;30;20238;-78
2021/04/03 16:07:39;;;;;;;11.77;3.13;;;;;16.00;102215.00;;;;9703503;30;20212;-77
2021/04/03 16:12:40;;;;;;;11.90;3.60;;;;;15.90;102209.00;;;;9663753;30;20281;-78
2021/04/03 16:17:42;;;;;;;11.23;3.57;;;;;15.00;102221.00;;;;9701495;30;20208;-77
2021/04/03 16:22:44;;;;;;;11.33;3.93;;;;;14.20;102224.00;;;;9711103;30;20292;-77
2021/04/03 16:27:45;;;;;;;23.10;6.07;;;;;13.30;102215.00;;;;9673502;30;20228;-77
2021/04/03 16:32:47;;;;;;;21.30;6.17;;;;;12.80;102198.00;;;;9656949;30;20227;-76
2021/04/03 16:37:49;;;;;;;20.53;5.87;;;;;12.80;102204.00;;;;9706456;30;20270;-77
2021/04/03 16:42:50;;;;;;;24.33;6.10;;;;;12.50;102210.00;;;;9682293;30;20207;-77
2021/04/03 16:47:53;;;;;;;19.40;5.60;;;;;12.40;102201.00;;;;9693378;30;20211;-77
2021/04/03 16:52:54;;;;;;;25.40;7.97;;;;;12.10;102201.00;;;;9697716;30;20215;-77
2021/04/03 16:57:55;;;;;;;19.97;4.70;;;;;12.00;102177.00;;;;9660820;30;20675;-78
2021/04/03 17:02:57;;;;;;;21.10;5.70;;;;;11.70;102204.00;;;;9707030;30;20206;-78
2021/04/03 17:07:58;;;;;;;18.23;5.93;;;;;11.40;102208.00;;;;9698082;30;20214;-78
2021/04/03 17:12:59;;;;;;;17.63;5.30;;;;;11.10;102206.00;;;;9699225;30;20223;-78
2021/04/03 17:18:02;;;;;;;19.63;5.90;;;;;11.10;102214.00;;;;9697737;30;20210;-78
2021/04/03 17:23:04;;;;;;;15.67;5.23;;;;;11.30;102208.00;;;;9704025;30;20200;-77
2021/04/03 17:28:05;;;;;;;18.07;5.43;;;;;11.40;102212.00;;;;9718338;30;20231;-78
2021/04/03 17:33:07;;;;;;;18.07;4.80;;;;;11.30;102209.00;;;;9689119;30;20282;-78
2021/04/03 17:38:08;;;;;;;14.97;4.67;;;;;11.10;102217.00;;;;9689028;30;20606;-78
2021/04/03 17:43:10;;;;;;;21.00;4.97;;;;;10.70;102225.00;;;;9675630;30;20207;-78
2021/04/03 17:48:12;;;;;;;18.90;5.30;;;;;10.60;102223.00;;;;9686244;30;20303;-78
2021/04/03 17:53:13;;;;;;;21.30;7.10;;;;;10.60;102217.00;;;;9645327;30;20212;-78
2021/04/03 17:58:14;;;;;;;21.70;5.07;;;;;10.50;102224.00;;;;9683018;30;20215;-78
2021/04/03 18:03:16;;;;;;;25.83;5.43;;;;;10.30;102229.00;;;;9671475;30;20283;-78
2021/04/03 18:08:17;;;;;;;18.00;5.57;;;;;10.20;102232.00;;;;9693059;30;20204;-78
2021/04/03 18:13:19;;;;;;;21.57;6.10;;;;;10.10;102228.00;;;;9689508;30;20207;-78
2021/04/03 18:18:20;;;;;;;20.77;6.50;;;;;9.90;102233.00;;;;9680899;30;20211;-77
2021/04/03 18:23:23;;;;;;;20.10;6.03;;;;;9.60;102229.00;;;;9657522;30;20216;-77
2021/04/03 18:28:24;;;;;;;52.50;20.23;;;;;9.20;102234.00;;;;9693727;30;20228;-76
2021/04/03 18:33:26;;;;;;;33.47;6.93;;;;;8.90;102239.00;;;;9694580;30;20293;-78
2021/04/03 18:38:28;;;;;;;20.87;5.83;;;;;8.60;102244.00;;;;9655547;30;20248;-77
2021/04/03 18:43:31;;;;;;;19.93;5.80;;;;;8.50;102251.00;;;;9689094;30;20212;-77
2021/04/03 18:48:33;;;;;;;19.27;5.57;;;;;8.30;102256.00;;;;9673695;30;20209;-77
2021/04/03 18:53:35;;;;;;;25.03;6.20;;;;;8.20;102263.00;;;;9687626;30;20211;-78
2021/04/03 18:58:37;;;;;;;20.70;5.83;;;;;8.10;102254.00;;;;9694566;30;20203;-77
2021/04/03 19:03:38;;;;;;;22.73;5.37;;;;;7.90;102256.00;;;;9668270;30;20255;-78
2021/04/03 19:08:42;;;;;;;16.17;5.73;;;;;7.70;102265.00;;;;9666793;30;20196;-77
2021/04/03 19:13:44;;;;;;;19.93;5.27;;;;;7.60;102272.00;;;;9701502;30;20390;-77
2021/04/03 19:18:46;;;;;;;20.03;5.77;;;;;7.50;102272.00;;;;9690076;30;20210;-78
2021/04/03 19:23:47;;;;;;;27.13;6.90;;;;;7.40;102279.00;;;;9671052;30;20236;-78
2021/04/03 19:28:51;;;;;;;15.63;4.30;;;;;7.40;102280.00;;;;9675808;30;20319;-78
2021/04/03 19:33:52;;;;;;;20.07;5.97;;;;;7.30;102286.00;;;;9678070;30;20714;-79
2021/04/03 19:38:53;;;;;;;22.70;5.40;;;;;7.20;102289.00;;;;9668076;30;20337;-78
2021/04/03 19:43:55;;;;;;;16.37;4.17;;;;;7.10;102290.00;;;;9678993;30;20632;-78
2021/04/03 19:48:57;;;;;;;22.53;5.33;;;;;7.10;102289.00;;;;9709111;30;20215;-78
2021/04/03 19:53:59;;;;;;;20.53;5.83;;;;;7.00;102284.00;;;;9696326;30;20227;-78
2021/04/03 19:59:00;;;;;;;31.20;5.80;;;;;6.90;102288.00;;;;9687162;30;20231;-78
2021/04/03 20:04:02;;;;;;;23.83;6.80;;;;;6.80;102287.00;;;;9688455;30;20227;-79
2021/04/03 20:09:03;;;;;;;22.70;6.53;;;;;6.70;102287.00;;;;9705407;30;20209;-79
2021/04/03 20:14:07;;;;;;;29.37;7.20;;;;;6.60;102298.00;;;;9696284;30;20220;-78
2021/04/03 20:19:08;;;;;;;25.97;6.23;;;;;6.50;102294.00;;;;9689637;30;20242;-78
2021/04/03 20:24:10;;;;;;;20.63;5.87;;;;;6.40;102306.00;;;;9707881;30;20208;-78
2021/04/03 20:29:11;;;;;;;18.63;4.90;;;;;6.40;102298.00;;;;9704490;30;20214;-78
2021/04/03 20:34:13;;;;;;;24.60;6.07;;;;;6.30;102307.00;;;;9706160;30;20886;-79
2021/04/03 20:39:14;;;;;;;20.83;5.63;;;;;6.20;102310.00;;;;9692714;30;20212;-79
2021/04/03 20:44:16;;;;;;;30.73;6.60;;;;;6.10;102316.00;;;;9678133;30;20204;-79
2021/04/03 20:49:17;;;;;;;20.20;5.77;;;;;6.10;102321.00;;;;9686102;30;20235;-79
2021/04/03 20:54:19;;;;;;;29.30;7.33;;;;;6.00;102315.00;;;;9658913;30;20220;-79
2021/04/03 20:59:20;;;;;;;24.37;7.90;;;;;5.90;102316.00;;;;9659294;30;20678;-79
2021/04/03 21:04:21;;;;;;;27.43;6.77;;;;;5.80;102317.00;;;;9673507;30;20208;-80
2021/04/03 21:09:22;;;;;;;22.93;7.33;;;;;5.70;102315.00;;;;9669455;30;20200;-79
2021/04/03 21:14:24;;;;;;;25.23;6.33;;;;;5.60;102313.00;;;;9695776;30;20240;-80
2021/04/03 21:19:26;;;;;;;24.57;6.17;;;;;5.50;102320.00;;;;9691807;30;20278;-80
2021/04/03 21:24:27;;;;;;;27.87;6.47;;;;;5.50;102325.00;;;;9703132;30;20219;-79
2021/04/03 21:29:29;;;;;;;24.03;7.07;;;;;5.40;102325.00;;;;9661821;30;20208;-79
2021/04/03 21:34:30;;;;;;;24.37;6.90;;;;;5.30;102324.00;;;;9700501;30;20224;-79
2021/04/03 21:39:32;;;;;;;23.80;7.37;;;;;5.30;102332.00;;;;9681103;30;20208;-79
2021/04/03 21:44:33;;;;;;;21.17;6.63;;;;;5.20;102335.00;;;;9677474;30;20208;-79
2021/04/03 21:49:35;;;;;;;31.37;7.67;;;;;5.10;102335.00;;;;9705214;30;20203;-79
2021/04/03 21:54:36;;;;;;;17.67;6.73;;;;;5.00;102336.00;;;;9685651;30;20211;-79
2021/04/03 21:59:38;;;;;;;16.73;6.40;;;;;4.90;102343.00;;;;9694635;30;20206;-79
2021/04/03 22:04:39;;;;;;;20.47;6.10;;;;;4.80;102337.00;;;;9665405;30;20653;-79
2021/04/03 22:09:41;;;;;;;22.67;6.57;;;;;4.80;102343.00;;;;9695396;30;20226;-79
2021/04/03 22:14:42;;;;;;;20.37;6.47;;;;;4.70;102344.00;;;;9700390;30;20220;-79
2021/04/03 22:19:44;;;;;;;18.57;6.70;;;;;4.60;102349.00;;;;9683029;30;20203;-79
2021/04/03 22:24:45;;;;;;;27.20;6.43;;;;;4.50;102349.00;;;;9702345;30;20234;-79
2021/04/03 22:29:46;;;;;;;17.50;6.93;;;;;4.30;102345.00;;;;9678116;30;20231;-79
2021/04/03 22:34:48;;;;;;;19.20;7.43;;;;;4.10;102348.00;;;;9697936;30;20258;-79
2021/04/03 22:39:49;;;;;;;24.23;9.60;;;;;4.00;102353.00;;;;9680061;30;20204;-79
2021/04/03 22:44:50;;;;;;;18.77;7.07;;;;;3.80;102351.00;;;;9694941;30;20211;-79
2021/04/03 22:49:52;;;;;;;27.13;9.63;;;;;3.80;102350.00;;;;9698509;30;20356;-79
2021/04/03 22:54:53;;;;;;;19.03;6.83;;;;;3.90;102354.00;;;;9665299;30;20231;-79
2021/04/03 22:59:54;;;;;;;26.63;7.57;;;;;3.90;102347.00;;;;9719307;30;20268;-79
2021/04/03 23:04:56;;;;;;;32.33;8.30;;;;;4.00;102341.00;;;;9714229;30;20301;-79
2021/04/03 23:09:58;;;;;;;17.90;8.30;;;;;4.00;102339.00;;;;9695087;30;20211;-79
2021/04/03 23:14:59;;;;;;;21.20;7.80;;;;;4.10;102338.00;;;;9701118;30;20570;-79
2021/04/03 23:20:06;;;;;;;20.50;7.33;;;;;4.20;102338.00;;;;9703889;30;20200;-79
2021/04/03 23:25:09;;;;;;;19.27;7.07;;;;;4.30;102336.00;;;;9695247;30;20223;-79
2021/04/03 23:30:12;;;;;;;23.57;7.60;;;;;4.50;102341.00;;;;9692364;30;20280;-79
2021/04/03 23:35:14;;;;;;;21.93;6.90;;;;;4.60;102338.00;;;;9659011;30;20319;-79
2021/04/03 23:40:16;;;;;;;22.80;7.10;;;;;4.60;102332.00;;;;9709697;30;20208;-79
2021/04/03 23:45:18;;;;;;;24.80;7.40;;;;;4.80;102349.00;;;;9691224;30;20208;-79
2021/04/03 23:50:19;;;;;;;35.43;7.77;;;;;4.90;102340.00;;;;9666937;30;20207;-79
2021/04/03 23:55:20;;;;;;;20.90;7.40;;;;;5.00;102338.00;;;;9704950;30;20226;-79
